LRSM - SATU MARE

Compiled: 18:00:30 on 22/07/2018

Latest METAR/SPECI Reports

METAR LRSM 221730Z AUTO 25003KT 210V300 9999 FEW170/// 22/19 Q1009=

Previous reports

METAR LRSM 221700Z AUTO 23004KT 9999 NCD 23/18 Q1008=
METAR LRSM 221630Z AUTO 25005KT 9999 NCD 24/18 Q1008=
METAR LRSM 221600Z AUTO 25009KT 9999 FEW045/// SCT110/// 25/18 Q1008=
METAR LRSM 221530Z AUTO 25011KT 9999 BKN045/// BKN055/// 26/19 Q1008=

Latest TAF report

TAF AMD LRSM 211717Z 2117/2124 CNL=

Valid WARNINGS

No valid warnings for LRSM